Sisisi — GGHS — position and weather

sailwx.info

Track history (hours):
 
Tides and Currents Weather Stations Pressure Air Temp Water Temp Dewpoint Dewpoint Depression Visibility Wind Speed Wind Dir Waves Ship Positions

Sisisi

Last reported at 2017-Sep-21 04:29 UTC. Time now 2017-Sep-21 04:53 UTC.
Position N 38°59' W 076°29'.

Length 29 m.

Type: Pleasure craft. MMSI: 232142000.

Date/timePositionNaut miles runAvg speedWind from/ knotsBaromVisibWave heightAir tempDewpointWater temp
2017-Sep-21 04:29N 38°59' W 076°29'0 0.0
2017-Sep-21 04:00N 38°59' W 076°29'0 0.0
2017-Sep-21 03:26N 38°59' W 076°29'0 0.0
2017-Sep-21 03:00N 38°59' W 076°29'0 0.0
2017-Sep-21 02:29N 38°59' W 076°29'0 0.0
2017-Sep-21 01:56N 38°59' W 076°29'0 0.0
2017-Sep-21 01:17N 38°59' W 076°29'0 0.0
2017-Sep-21 00:59N 38°59' W 076°29'0 0.0
2017-Sep-21 00:29N 38°59' W 076°29'0 0.0
2017-Sep-21 00:00N 38°59' W 076°29'0 0.0
2017-Sep-20 23:30N 38°59' W 076°29'0 0.0
2017-Sep-20 22:56N 38°59' W 076°29'0 0.0
2017-Sep-20 22:29N 38°59' W 076°29'0 0.0
2017-Sep-20 21:53N 38°59' W 076°29'0 0.0
2017-Sep-20 21:22N 38°59' W 076°29'0 0.0
2017-Sep-20 20:01N 38°59' W 076°29'0 0.0
2017-Sep-20 19:43N 38°59' W 076°29'0 0.0
2017-Sep-20 19:28N 38°59' W 076°29'0 0.0
2017-Sep-20 18:59N 38°59' W 076°29'0 0.0
2017-Sep-20 18:28N 38°59' W 076°29'0 0.0
2017-Sep-20 17:56N 38°59' W 076°29'0 0.0
2017-Sep-20 17:28N 38°59' W 076°29'0 0.0
2017-Sep-20 16:50N 38°59' W 076°29'0 0.0
2017-Sep-20 16:28N 38°59' W 076°29'0 0.0
2017-Sep-20 16:00N 38°59' W 076°29'0 0.0
2017-Sep-20 15:21N 38°59' W 076°29'0 0.0
2017-Sep-20 14:56N 38°59' W 076°29'0 0.0
2017-Sep-20 14:00N 38°59' W 076°29'0 0.0
2017-Sep-20 13:20N 38°59' W 076°29'0 0.0
2017-Sep-20 12:54N 38°59' W 076°29'0 0.0
2017-Sep-20 06:54N 38°59' W 076°29'0 0.0
2017-Sep-20 06:27N 38°59' W 076°29'0 0.0
2017-Sep-20 05:59N 38°59' W 076°29'0 0.0
2017-Sep-20 05:26N 38°59' W 076°29'0 0.0
2017-Sep-20 04:56N 38°59' W 076°29'0 0.0
2017-Sep-20 04:26N 38°59' W 076°29'0 0.0
2017-Sep-20 04:00N 38°59' W 076°29'0 0.0
2017-Sep-20 03:30N 38°59' W 076°29'0 0.0
2017-Sep-20 02:57N 38°59' W 076°29'0 0.0
2017-Sep-20 02:29N 38°59' W 076°29'0 0.0
2017-Sep-20 02:00N 38°59' W 076°29'0 0.0
2017-Sep-20 01:29N 38°59' W 076°29'0 0.0
2017-Sep-20 00:41N 38°59' W 076°29'0 0.0
2017-Sep-20 00:27N 38°59' W 076°29'0 0.0
2017-Sep-20 00:00N 38°59' W 076°29'0 0.0
2017-Sep-19 23:19N 38°59' W 076°29'0 0.0
2017-Sep-19 22:49N 38°59' W 076°29'0 0.0
2017-Sep-19 22:28N 38°59' W 076°29'0 0.0
2017-Sep-19 21:47N 38°59' W 076°29'0 0.0
2017-Sep-19 21:26N 38°59' W 076°29'0 0.0
2017-Sep-19 20:47N 38°59' W 076°29'0 0.0
2017-Sep-19 20:07N 38°59' W 076°29'0 0.0
2017-Sep-19 19:58N 38°59' W 076°29'0 0.0
2017-Sep-19 19:28N 38°59' W 076°29'0 0.0
2017-Sep-19 18:53N 38°59' W 076°29'0 0.0
2017-Sep-19 18:22N 38°59' W 076°29'  
2017-Sep-17 11:37N 39°24' W 076°04'1 8.7
2017-Sep-17 11:30N 39°24' W 076°03'4 8.5
2017-Sep-17 10:58N 39°28' W 075°59'4 8.1
2017-Sep-17 10:26N 39°30' W 075°55'3 7.5
2017-Sep-17 10:00N 39°32' W 075°51'4 7.1
2017-Sep-17 09:28N 39°32' W 075°46'4 7.2
2017-Sep-17 08:58N 39°33' W 075°41'3 7.0
2017-Sep-17 08:30N 39°33' W 075°37'3 6.8
2017-Sep-17 08:00N 39°33' W 075°33'4 7.3
2017-Sep-17 07:30N 39°29' W 075°34'3 6.8
2017-Sep-17 07:00N 39°26' W 075°32'4 6.8
2017-Sep-17 06:29N 39°24' W 075°29'3 6.6
2017-Sep-17 06:00N 39°21' W 075°27'4 6.8
2017-Sep-17 05:25N 39°18' W 075°23'4 7.1
2017-Sep-17 04:49N 39°15' W 075°19'3 6.9
2017-Sep-17 04:23N 39°13' W 075°17'8 7.6
2017-Sep-17 03:17N 39°06' W 075°12'3 7.8
2017-Sep-17 02:55N 39°03' W 075°10'3 7.8
2017-Sep-17 02:30N 38°60' W 075°08'62 7.0
2017-Sep-16 17:40N 39°38' W 074°06'2 9.4
2017-Sep-16 17:30N 39°40' W 074°05'5 9.4
2017-Sep-16 17:00N 39°44' W 074°03'52 9.1
2017-Sep-16 11:18N 40°35' W 074°03'3 9.5
2017-Sep-16 11:00N 40°38' W 074°03'4 0.1
2017-Sep-14 23:21N 40°43' W 074°03'0 0.0
2017-Sep-14 23:00N 40°43' W 074°03'0 0.0
2017-Sep-14 22:24N 40°43' W 074°03'0 0.0
2017-Sep-14 22:00N 40°43' W 074°03'0 0.0
2017-Sep-14 21:30N 40°43' W 074°03'0 0.0
2017-Sep-14 21:00N 40°43' W 074°03'0 0.0
2017-Sep-14 20:27N 40°43' W 074°03'0 0.0
2017-Sep-14 20:00N 40°43' W 074°03'0 0.0
2017-Sep-14 19:28N 40°43' W 074°03'0 0.0
2017-Sep-14 18:58N 40°43' W 074°03'0 0.7
2017-Sep-14 18:28N 40°43' W 074°02'0 0.0
2017-Sep-14 17:59N 40°43' W 074°02'0 0.0
2017-Sep-14 17:29N 40°43' W 074°02'1 2.2
2017-Sep-14 16:59N 40°43' W 074°01'0 0.0
2017-Sep-14 16:30N 40°43' W 074°01'0 0.0
2017-Sep-14 15:58N 40°43' W 074°01'0 0.0
2017-Sep-14 15:28N 40°43' W 074°01'0 0.0
2017-Sep-14 14:59N 40°43' W 074°01'0 0.0
2017-Sep-14 14:26N 40°43' W 074°01'0 0.0
2017-Sep-14 14:00N 40°43' W 074°01'0 0.0
2017-Sep-14 13:30N 40°43' W 074°01'0 0.0
2017-Sep-14 12:51N 40°43' W 074°01'0 0.0
2017-Sep-14 12:30N 40°43' W 074°01'0 0.0
2017-Sep-14 11:57N 40°43' W 074°01'0 0.0
2017-Sep-14 11:27N 40°43' W 074°01'0 0.0
2017-Sep-14 11:00N 40°43' W 074°01'0 0.0
2017-Sep-14 10:27N 40°43' W 074°01'0 0.0
2017-Sep-14 10:00N 40°43' W 074°01'0 0.0
2017-Sep-14 09:30N 40°43' W 074°01'0 0.0
2017-Sep-14 09:00N 40°43' W 074°01'0 0.0
2017-Sep-14 08:30N 40°43' W 074°01'0 0.0
2017-Sep-14 08:00N 40°43' W 074°01'0 0.0
2017-Sep-14 07:30N 40°43' W 074°01'0 0.0
2017-Sep-14 07:00N 40°43' W 074°01'0 0.0
2017-Sep-14 06:29N 40°43' W 074°01'0 0.0
2017-Sep-14 06:00N 40°43' W 074°01'0 0.0
2017-Sep-14 05:25N 40°43' W 074°01'0 0.0
2017-Sep-14 04:58N 40°43' W 074°01'0 0.0
2017-Sep-14 04:28N 40°43' W 074°01'0 0.0
2017-Sep-14 03:58N 40°43' W 074°01'0 0.0
2017-Sep-14 03:25N 40°43' W 074°01'0 0.0
2017-Sep-14 02:55N 40°43' W 074°01'0 0.0
2017-Sep-14 02:28N 40°43' W 074°01'0 0.0
2017-Sep-14 01:58N 40°43' W 074°01'0 0.0
2017-Sep-14 01:28N 40°43' W 074°01'0 0.0
2017-Sep-14 00:58N 40°43' W 074°01'0 0.0
2017-Sep-14 00:29N 40°43' W 074°01'0 0.0
2017-Sep-13 23:59N 40°43' W 074°01'0 0.0
2017-Sep-13 23:29N 40°43' W 074°01'0 0.0
2017-Sep-13 22:59N 40°43' W 074°01'0 0.0
2017-Sep-13 22:29N 40°43' W 074°01'0 0.0
2017-Sep-13 21:56N 40°43' W 074°01'0 0.0
2017-Sep-13 21:29N 40°43' W 074°01'0 0.0
2017-Sep-13 20:59N 40°43' W 074°01'0 0.0
2017-Sep-13 20:25N 40°43' W 074°01'0 0.0
2017-Sep-13 19:58N 40°43' W 074°01'0 0.0
2017-Sep-13 19:28N 40°43' W 074°01'0 0.0
2017-Sep-13 18:52N 40°43' W 074°01'0 0.0
2017-Sep-13 18:25N 40°43' W 074°01'0 0.0
2017-Sep-13 17:43N 40°43' W 074°01'0 0.0
2017-Sep-13 17:28N 40°43' W 074°01'0 0.0
2017-Sep-13 16:58N 40°43' W 074°01'0 0.0
2017-Sep-13 16:27N 40°43' W 074°01'0 0.0
2017-Sep-13 15:57N 40°43' W 074°01'0 0.0
2017-Sep-13 15:30N 40°43' W 074°01'0 0.0
2017-Sep-13 15:00N 40°43' W 074°01'0 0.0
2017-Sep-13 14:30N 40°43' W 074°01'0 0.0
2017-Sep-13 13:59N 40°43' W 074°01'0 0.0
2017-Sep-13 13:28N 40°43' W 074°01'0 0.0
2017-Sep-13 12:58N 40°43' W 074°01'0 0.0
2017-Sep-13 12:28N 40°43' W 074°01'0 0.0
2017-Sep-13 11:58N 40°43' W 074°01'0 0.0
2017-Sep-13 11:28N 40°43' W 074°01'0 0.0
2017-Sep-13 10:58N 40°43' W 074°01'0 0.0
2017-Sep-13 10:28N 40°43' W 074°01'0 0.0
2017-Sep-13 09:58N 40°43' W 074°01'0 0.0
2017-Sep-13 09:30N 40°43' W 074°01'0 0.0
2017-Sep-13 08:58N 40°43' W 074°01'0 0.0
2017-Sep-13 08:28N 40°43' W 074°01'0 0.0
2017-Sep-13 07:58N 40°43' W 074°01'0 0.0
2017-Sep-13 07:28N 40°43' W 074°01'0 0.0
2017-Sep-13 06:58N 40°43' W 074°01'0 0.0
2017-Sep-13 06:30N 40°43' W 074°01'0 0.0
2017-Sep-13 05:58N 40°43' W 074°01'0 0.0
2017-Sep-13 05:28N 40°43' W 074°01'0 0.0
2017-Sep-13 04:58N 40°43' W 074°01'0 0.0
2017-Sep-13 04:22N 40°43' W 074°01'0 0.0
2017-Sep-13 03:55N 40°43' W 074°01'0 0.0
2017-Sep-13 03:25N 40°43' W 074°01'0 0.0
2017-Sep-13 03:00N 40°43' W 074°01'0 0.0
2017-Sep-13 02:29N 40°43' W 074°01'0 0.0
2017-Sep-13 01:59N 40°43' W 074°01'0 0.0
2017-Sep-13 01:22N 40°43' W 074°01'0 0.0
2017-Sep-13 00:59N 40°43' W 074°01'0 0.0
2017-Sep-13 00:29N 40°43' W 074°01'0 0.0
2017-Sep-12 23:59N 40°43' W 074°01'0 0.0
2017-Sep-12 23:26N 40°43' W 074°01'0 0.0
2017-Sep-12 22:54N 40°43' W 074°01'0 0.0
2017-Sep-12 22:29N 40°43' W 074°01'0 0.0
2017-Sep-12 21:58N 40°43' W 074°01'0 0.0
2017-Sep-12 21:22N 40°43' W 074°01'0 0.0
2017-Sep-12 20:55N 40°43' W 074°01'0 0.0
2017-Sep-12 20:28N 40°43' W 074°01'0 0.0
2017-Sep-12 19:55N 40°43' W 074°01'0 0.0
2017-Sep-12 19:16N 40°43' W 074°01'0 0.0
2017-Sep-12 18:58N 40°43' W 074°01'0 0.0
2017-Sep-12 18:27N 40°43' W 074°01'0 0.0
2017-Sep-12 18:00N 40°43' W 074°01'0 0.0
2017-Sep-12 17:27N 40°43' W 074°01'0 0.0
2017-Sep-12 17:00N 40°43' W 074°01'0 0.0
2017-Sep-12 16:31N 40°43' W 074°01'0 0.0
2017-Sep-12 15:59N 40°43' W 074°01'0 0.0
2017-Sep-12 15:29N 40°43' W 074°01'0 0.0
2017-Sep-12 14:57N 40°43' W 074°01'0 0.0
2017-Sep-12 14:27N 40°43' W 074°01'0 0.0
2017-Sep-12 14:00N 40°43' W 074°01'0 0.0
2017-Sep-12 13:30N 40°43' W 074°01'0 0.0
2017-Sep-12 13:00N 40°43' W 074°01'0 0.0
2017-Sep-12 12:27N 40°43' W 074°01'0 0.0
2017-Sep-12 12:00N 40°43' W 074°01'0 0.0
2017-Sep-12 11:30N 40°43' W 074°01'0 0.0
2017-Sep-12 11:00N 40°43' W 074°01'0 0.0
2017-Sep-12 10:30N 40°43' W 074°01'0 0.0
2017-Sep-12 10:00N 40°43' W 074°01'0 0.0
2017-Sep-12 09:28N 40°43' W 074°01'0 0.0
2017-Sep-12 08:52N 40°43' W 074°01'0 0.0
2017-Sep-12 08:29N 40°43' W 074°01'0 0.0
2017-Sep-12 07:59N 40°43' W 074°01'0 0.0
2017-Sep-12 07:29N 40°43' W 074°01'0 0.0
2017-Sep-12 06:59N 40°43' W 074°01'0 0.0
2017-Sep-12 06:29N 40°43' W 074°01'0 0.0
2017-Sep-12 05:56N 40°43' W 074°01'0 0.0
2017-Sep-12 05:29N 40°43' W 074°01'0 0.0
2017-Sep-12 04:59N 40°43' W 074°01'0 0.0
2017-Sep-12 04:29N 40°43' W 074°01'0 0.0
2017-Sep-12 03:59N 40°43' W 074°01'0 0.0
2017-Sep-12 03:26N 40°43' W 074°01'0 0.0
2017-Sep-12 02:57N 40°43' W 074°01'0 0.0
2017-Sep-12 02:30N 40°43' W 074°01'0 0.0
2017-Sep-12 01:57N 40°43' W 074°01'0 0.0
2017-Sep-12 01:26N 40°43' W 074°01'0 0.0
2017-Sep-12 01:00N 40°43' W 074°01'0 0.0
2017-Sep-12 00:30N 40°43' W 074°01'0 0.0
2017-Sep-12 00:00N 40°43' W 074°01'0 0.0
2017-Sep-11 23:30N 40°43' W 074°01'0 0.0
2017-Sep-11 22:52N 40°43' W 074°01'0 0.0
2017-Sep-11 22:28N 40°43' W 074°01'0 0.0
2017-Sep-11 21:59N 40°43' W 074°01'0 0.0
2017-Sep-11 21:28N 40°43' W 074°01'0 0.0
2017-Sep-11 20:58N 40°43' W 074°01'0 0.0
2017-Sep-11 20:22N 40°43' W 074°01'0 0.0
2017-Sep-11 19:58N 40°43' W 074°01'0 0.0
2017-Sep-11 19:28N 40°43' W 074°01'0 0.0
2017-Sep-11 18:55N 40°43' W 074°01'0 0.0
2017-Sep-11 18:29N 40°43' W 074°01'0 0.0
2017-Sep-11 17:59N 40°43' W 074°01'0 0.0
2017-Sep-11 17:26N 40°43' W 074°01'0 0.0
2017-Sep-11 16:59N 40°43' W 074°01'0 0.0
2017-Sep-11 16:26N 40°43' W 074°01'0 0.0
2017-Sep-11 16:00N 40°43' W 074°01'0 0.0
2017-Sep-11 15:30N 40°43' W 074°01'0 0.0
2017-Sep-11 15:00N 40°43' W 074°01'0 0.0
2017-Sep-11 14:30N 40°43' W 074°01'0 0.0
2017-Sep-11 14:00N 40°43' W 074°01'0 0.0
2017-Sep-11 13:15N 40°43' W 074°01'0 0.0
2017-Sep-11 12:58N 40°43' W 074°01'0 0.0
2017-Sep-11 12:23N 40°43' W 074°01'0 0.0
2017-Sep-11 11:58N 40°43' W 074°01'0 0.0
2017-Sep-11 11:30N 40°43' W 074°01'0 0.0
2017-Sep-11 11:00N 40°43' W 074°01'0 0.0
2017-Sep-11 10:27N 40°43' W 074°01'0 0.0
2017-Sep-11 09:58N 40°43' W 074°01'0 0.0
2017-Sep-11 09:28N 40°43' W 074°01'0 0.0
2017-Sep-11 08:55N 40°43' W 074°01'0 0.0
2017-Sep-11 08:28N 40°43' W 074°01'0 0.0
2017-Sep-11 07:58N 40°43' W 074°01'0 0.0
2017-Sep-11 07:25N 40°43' W 074°01'0 0.0
2017-Sep-11 06:58N 40°43' W 074°01'0 0.0
2017-Sep-11 06:28N 40°43' W 074°01'0 0.0
2017-Sep-11 05:58N 40°43' W 074°01'0 0.0
2017-Sep-11 05:28N 40°43' W 074°01'0 0.0
2017-Sep-11 04:55N 40°43' W 074°01'  
Track history (hours):
 
Tides and Currents Weather Stations Pressure Air Temp Water Temp Dewpoint Dewpoint Depression Visibility Wind Speed Wind Dir Waves Ship Positions

Sisisi

Last reported at 2017-Sep-21 04:29 UTC. Time now 2017-Sep-21 04:53 UTC.
Position N 38°59' W 076°29'.

Length 29 m.

Type: Pleasure craft. MMSI: 232142000.

Date/timePositionNaut miles runAvg speedWind from/ knotsBaromVisibWave heightAir tempDewpointWater temp
2017-Sep-21 04:29N 38°59' W 076°29'0 0.0
2017-Sep-21 04:00N 38°59' W 076°29'0 0.0
2017-Sep-21 03:26N 38°59' W 076°29'0 0.0
2017-Sep-21 03:00N 38°59' W 076°29'0 0.0
2017-Sep-21 02:29N 38°59' W 076°29'0 0.0
2017-Sep-21 01:56N 38°59' W 076°29'0 0.0
2017-Sep-21 01:17N 38°59' W 076°29'0 0.0
2017-Sep-21 00:59N 38°59' W 076°29'0 0.0
2017-Sep-21 00:29N 38°59' W 076°29'0 0.0
2017-Sep-21 00:00N 38°59' W 076°29'0 0.0
2017-Sep-20 23:30N 38°59' W 076°29'0 0.0
2017-Sep-20 22:56N 38°59' W 076°29'0 0.0
2017-Sep-20 22:29N 38°59' W 076°29'0 0.0
2017-Sep-20 21:53N 38°59' W 076°29'0 0.0
2017-Sep-20 21:22N 38°59' W 076°29'0 0.0
2017-Sep-20 20:01N 38°59' W 076°29'0 0.0
2017-Sep-20 19:43N 38°59' W 076°29'0 0.0
2017-Sep-20 19:28N 38°59' W 076°29'0 0.0
2017-Sep-20 18:59N 38°59' W 076°29'0 0.0
2017-Sep-20 18:28N 38°59' W 076°29'0 0.0
2017-Sep-20 17:56N 38°59' W 076°29'0 0.0
2017-Sep-20 17:28N 38°59' W 076°29'0 0.0
2017-Sep-20 16:50N 38°59' W 076°29'0 0.0
2017-Sep-20 16:28N 38°59' W 076°29'0 0.0
2017-Sep-20 16:00N 38°59' W 076°29'0 0.0
2017-Sep-20 15:21N 38°59' W 076°29'0 0.0
2017-Sep-20 14:56N 38°59' W 076°29'0 0.0
2017-Sep-20 14:00N 38°59' W 076°29'0 0.0
2017-Sep-20 13:20N 38°59' W 076°29'0 0.0
2017-Sep-20 12:54N 38°59' W 076°29'0 0.0
2017-Sep-20 06:54N 38°59' W 076°29'0 0.0
2017-Sep-20 06:27N 38°59' W 076°29'0 0.0
2017-Sep-20 05:59N 38°59' W 076°29'0 0.0
2017-Sep-20 05:26N 38°59' W 076°29'0 0.0
2017-Sep-20 04:56N 38°59' W 076°29'0 0.0
2017-Sep-20 04:26N 38°59' W 076°29'0 0.0
2017-Sep-20 04:00N 38°59' W 076°29'0 0.0
2017-Sep-20 03:30N 38°59' W 076°29'0 0.0
2017-Sep-20 02:57N 38°59' W 076°29'0 0.0
2017-Sep-20 02:29N 38°59' W 076°29'0 0.0
2017-Sep-20 02:00N 38°59' W 076°29'0 0.0
2017-Sep-20 01:29N 38°59' W 076°29'0 0.0
2017-Sep-20 00:41N 38°59' W 076°29'0 0.0
2017-Sep-20 00:27N 38°59' W 076°29'0 0.0
2017-Sep-20 00:00N 38°59' W 076°29'0 0.0
2017-Sep-19 23:19N 38°59' W 076°29'0 0.0
2017-Sep-19 22:49N 38°59' W 076°29'0 0.0
2017-Sep-19 22:28N 38°59' W 076°29'0 0.0
2017-Sep-19 21:47N 38°59' W 076°29'0 0.0
2017-Sep-19 21:26N 38°59' W 076°29'0 0.0
2017-Sep-19 20:47N 38°59' W 076°29'0 0.0
2017-Sep-19 20:07N 38°59' W 076°29'0 0.0
2017-Sep-19 19:58N 38°59' W 076°29'0 0.0
2017-Sep-19 19:28N 38°59' W 076°29'0 0.0
2017-Sep-19 18:53N 38°59' W 076°29'0 0.0
2017-Sep-19 18:22N 38°59' W 076°29'  
2017-Sep-17 11:37N 39°24' W 076°04'1 8.7
2017-Sep-17 11:30N 39°24' W 076°03'4 8.5
2017-Sep-17 10:58N 39°28' W 075°59'4 8.1
2017-Sep-17 10:26N 39°30' W 075°55'3 7.5
2017-Sep-17 10:00N 39°32' W 075°51'4 7.1
2017-Sep-17 09:28N 39°32' W 075°46'4 7.2
2017-Sep-17 08:58N 39°33' W 075°41'3 7.0
2017-Sep-17 08:30N 39°33' W 075°37'3 6.8
2017-Sep-17 08:00N 39°33' W 075°33'4 7.3
2017-Sep-17 07:30N 39°29' W 075°34'3 6.8
2017-Sep-17 07:00N 39°26' W 075°32'4 6.8
2017-Sep-17 06:29N 39°24' W 075°29'3 6.6
2017-Sep-17 06:00N 39°21' W 075°27'4 6.8
2017-Sep-17 05:25N 39°18' W 075°23'4 7.1
2017-Sep-17 04:49N 39°15' W 075°19'3 6.9
2017-Sep-17 04:23N 39°13' W 075°17'8 7.6
2017-Sep-17 03:17N 39°06' W 075°12'3 7.8
2017-Sep-17 02:55N 39°03' W 075°10'3 7.8
2017-Sep-17 02:30N 38°60' W 075°08'62 7.0
2017-Sep-16 17:40N 39°38' W 074°06'2 9.4
2017-Sep-16 17:30N 39°40' W 074°05'5 9.4
2017-Sep-16 17:00N 39°44' W 074°03'52 9.1
2017-Sep-16 11:18N 40°35' W 074°03'3 9.5
2017-Sep-16 11:00N 40°38' W 074°03'4 0.1
2017-Sep-14 23:21N 40°43' W 074°03'0 0.0
2017-Sep-14 23:00N 40°43' W 074°03'0 0.0
2017-Sep-14 22:24N 40°43' W 074°03'0 0.0
2017-Sep-14 22:00N 40°43' W 074°03'0 0.0
2017-Sep-14 21:30N 40°43' W 074°03'0 0.0
2017-Sep-14 21:00N 40°43' W 074°03'0 0.0
2017-Sep-14 20:27N 40°43' W 074°03'0 0.0
2017-Sep-14 20:00N 40°43' W 074°03'0 0.0
2017-Sep-14 19:28N 40°43' W 074°03'0 0.0
2017-Sep-14 18:58N 40°43' W 074°03'0 0.7
2017-Sep-14 18:28N 40°43' W 074°02'0 0.0
2017-Sep-14 17:59N 40°43' W 074°02'0 0.0
2017-Sep-14 17:29N 40°43' W 074°02'1 2.2
2017-Sep-14 16:59N 40°43' W 074°01'0 0.0
2017-Sep-14 16:30N 40°43' W 074°01'0 0.0
2017-Sep-14 15:58N 40°43' W 074°01'0 0.0
2017-Sep-14 15:28N 40°43' W 074°01'0 0.0
2017-Sep-14 14:59N 40°43' W 074°01'0 0.0
2017-Sep-14 14:26N 40°43' W 074°01'0 0.0
2017-Sep-14 14:00N 40°43' W 074°01'0 0.0
2017-Sep-14 13:30N 40°43' W 074°01'0 0.0
2017-Sep-14 12:51N 40°43' W 074°01'0 0.0
2017-Sep-14 12:30N 40°43' W 074°01'0 0.0
2017-Sep-14 11:57N 40°43' W 074°01'0 0.0
2017-Sep-14 11:27N 40°43' W 074°01'0 0.0
2017-Sep-14 11:00N 40°43' W 074°01'0 0.0
2017-Sep-14 10:27N 40°43' W 074°01'0 0.0
2017-Sep-14 10:00N 40°43' W 074°01'0 0.0
2017-Sep-14 09:30N 40°43' W 074°01'0 0.0
2017-Sep-14 09:00N 40°43' W 074°01'0 0.0
2017-Sep-14 08:30N 40°43' W 074°01'0 0.0
2017-Sep-14 08:00N 40°43' W 074°01'0 0.0
2017-Sep-14 07:30N 40°43' W 074°01'0 0.0
2017-Sep-14 07:00N 40°43' W 074°01'0 0.0
2017-Sep-14 06:29N 40°43' W 074°01'0 0.0
2017-Sep-14 06:00N 40°43' W 074°01'0 0.0
2017-Sep-14 05:25N 40°43' W 074°01'0 0.0
2017-Sep-14 04:58N 40°43' W 074°01'0 0.0
2017-Sep-14 04:28N 40°43' W 074°01'0 0.0
2017-Sep-14 03:58N 40°43' W 074°01'0 0.0
2017-Sep-14 03:25N 40°43' W 074°01'0 0.0
2017-Sep-14 02:55N 40°43' W 074°01'0 0.0
2017-Sep-14 02:28N 40°43' W 074°01'0 0.0
2017-Sep-14 01:58N 40°43' W 074°01'0 0.0
2017-Sep-14 01:28N 40°43' W 074°01'0 0.0
2017-Sep-14 00:58N 40°43' W 074°01'0 0.0
2017-Sep-14 00:29N 40°43' W 074°01'0 0.0
2017-Sep-13 23:59N 40°43' W 074°01'0 0.0
2017-Sep-13 23:29N 40°43' W 074°01'0 0.0
2017-Sep-13 22:59N 40°43' W 074°01'0 0.0
2017-Sep-13 22:29N 40°43' W 074°01'0 0.0
2017-Sep-13 21:56N 40°43' W 074°01'0 0.0
2017-Sep-13 21:29N 40°43' W 074°01'0 0.0
2017-Sep-13 20:59N 40°43' W 074°01'0 0.0
2017-Sep-13 20:25N 40°43' W 074°01'0 0.0
2017-Sep-13 19:58N 40°43' W 074°01'0 0.0
2017-Sep-13 19:28N 40°43' W 074°01'0 0.0
2017-Sep-13 18:52N 40°43' W 074°01'0 0.0
2017-Sep-13 18:25N 40°43' W 074°01'0 0.0
2017-Sep-13 17:43N 40°43' W 074°01'0 0.0
2017-Sep-13 17:28N 40°43' W 074°01'0 0.0
2017-Sep-13 16:58N 40°43' W 074°01'0 0.0
2017-Sep-13 16:27N 40°43' W 074°01'0 0.0
2017-Sep-13 15:57N 40°43' W 074°01'0 0.0
2017-Sep-13 15:30N 40°43' W 074°01'0 0.0
2017-Sep-13 15:00N 40°43' W 074°01'0 0.0
2017-Sep-13 14:30N 40°43' W 074°01'0 0.0
2017-Sep-13 13:59N 40°43' W 074°01'0 0.0
2017-Sep-13 13:28N 40°43' W 074°01'0 0.0
2017-Sep-13 12:58N 40°43' W 074°01'0 0.0
2017-Sep-13 12:28N 40°43' W 074°01'0 0.0
2017-Sep-13 11:58N 40°43' W 074°01'0 0.0
2017-Sep-13 11:28N 40°43' W 074°01'0 0.0
2017-Sep-13 10:58N 40°43' W 074°01'0 0.0
2017-Sep-13 10:28N 40°43' W 074°01'0 0.0
2017-Sep-13 09:58N 40°43' W 074°01'0 0.0
2017-Sep-13 09:30N 40°43' W 074°01'0 0.0
2017-Sep-13 08:58N 40°43' W 074°01'0 0.0
2017-Sep-13 08:28N 40°43' W 074°01'0 0.0
2017-Sep-13 07:58N 40°43' W 074°01'0 0.0
2017-Sep-13 07:28N 40°43' W 074°01'0 0.0
2017-Sep-13 06:58N 40°43' W 074°01'0 0.0
2017-Sep-13 06:30N 40°43' W 074°01'0 0.0
2017-Sep-13 05:58N 40°43' W 074°01'0 0.0
2017-Sep-13 05:28N 40°43' W 074°01'0 0.0
2017-Sep-13 04:58N 40°43' W 074°01'0 0.0
2017-Sep-13 04:22N 40°43' W 074°01'0 0.0
2017-Sep-13 03:55N 40°43' W 074°01'0 0.0
2017-Sep-13 03:25N 40°43' W 074°01'0 0.0
2017-Sep-13 03:00N 40°43' W 074°01'0 0.0
2017-Sep-13 02:29N 40°43' W 074°01'0 0.0
2017-Sep-13 01:59N 40°43' W 074°01'0 0.0
2017-Sep-13 01:22N 40°43' W 074°01'0 0.0
2017-Sep-13 00:59N 40°43' W 074°01'0 0.0
2017-Sep-13 00:29N 40°43' W 074°01'0 0.0
2017-Sep-12 23:59N 40°43' W 074°01'0 0.0
2017-Sep-12 23:26N 40°43' W 074°01'0 0.0
2017-Sep-12 22:54N 40°43' W 074°01'0 0.0
2017-Sep-12 22:29N 40°43' W 074°01'0 0.0
2017-Sep-12 21:58N 40°43' W 074°01'0 0.0
2017-Sep-12 21:22N 40°43' W 074°01'0 0.0
2017-Sep-12 20:55N 40°43' W 074°01'0 0.0
2017-Sep-12 20:28N 40°43' W 074°01'0 0.0
2017-Sep-12 19:55N 40°43' W 074°01'0 0.0
2017-Sep-12 19:16N 40°43' W 074°01'0 0.0
2017-Sep-12 18:58N 40°43' W 074°01'0 0.0
2017-Sep-12 18:27N 40°43' W 074°01'0 0.0
2017-Sep-12 18:00N 40°43' W 074°01'0 0.0
2017-Sep-12 17:27N 40°43' W 074°01'0 0.0
2017-Sep-12 17:00N 40°43' W 074°01'0 0.0
2017-Sep-12 16:31N 40°43' W 074°01'0 0.0
2017-Sep-12 15:59N 40°43' W 074°01'0 0.0
2017-Sep-12 15:29N 40°43' W 074°01'0 0.0
2017-Sep-12 14:57N 40°43' W 074°01'0 0.0
2017-Sep-12 14:27N 40°43' W 074°01'0 0.0
2017-Sep-12 14:00N 40°43' W 074°01'0 0.0
2017-Sep-12 13:30N 40°43' W 074°01'0 0.0
2017-Sep-12 13:00N 40°43' W 074°01'0 0.0
2017-Sep-12 12:27N 40°43' W 074°01'0 0.0
2017-Sep-12 12:00N 40°43' W 074°01'0 0.0
2017-Sep-12 11:30N 40°43' W 074°01'0 0.0
2017-Sep-12 11:00N 40°43' W 074°01'0 0.0
2017-Sep-12 10:30N 40°43' W 074°01'0 0.0
2017-Sep-12 10:00N 40°43' W 074°01'0 0.0
2017-Sep-12 09:28N 40°43' W 074°01'0 0.0
2017-Sep-12 08:52N 40°43' W 074°01'0 0.0
2017-Sep-12 08:29N 40°43' W 074°01'0 0.0
2017-Sep-12 07:59N 40°43' W 074°01'0 0.0
2017-Sep-12 07:29N 40°43' W 074°01'0 0.0
2017-Sep-12 06:59N 40°43' W 074°01'0 0.0
2017-Sep-12 06:29N 40°43' W 074°01'0 0.0
2017-Sep-12 05:56N 40°43' W 074°01'0 0.0
2017-Sep-12 05:29N 40°43' W 074°01'0 0.0
2017-Sep-12 04:59N 40°43' W 074°01'0 0.0
2017-Sep-12 04:29N 40°43' W 074°01'0 0.0
2017-Sep-12 03:59N 40°43' W 074°01'0 0.0
2017-Sep-12 03:26N 40°43' W 074°01'0 0.0
2017-Sep-12 02:57N 40°43' W 074°01'0 0.0
2017-Sep-12 02:30N 40°43' W 074°01'0 0.0
2017-Sep-12 01:57N 40°43' W 074°01'0 0.0
2017-Sep-12 01:26N 40°43' W 074°01'0 0.0
2017-Sep-12 01:00N 40°43' W 074°01'0 0.0
2017-Sep-12 00:30N 40°43' W 074°01'0 0.0
2017-Sep-12 00:00N 40°43' W 074°01'0 0.0
2017-Sep-11 23:30N 40°43' W 074°01'0 0.0
2017-Sep-11 22:52N 40°43' W 074°01'0 0.0
2017-Sep-11 22:28N 40°43' W 074°01'0 0.0
2017-Sep-11 21:59N 40°43' W 074°01'0 0.0
2017-Sep-11 21:28N 40°43' W 074°01'0 0.0
2017-Sep-11 20:58N 40°43' W 074°01'0 0.0
2017-Sep-11 20:22N 40°43' W 074°01'0 0.0
2017-Sep-11 19:58N 40°43' W 074°01'0 0.0
2017-Sep-11 19:28N 40°43' W 074°01'0 0.0
2017-Sep-11 18:55N 40°43' W 074°01'0 0.0
2017-Sep-11 18:29N 40°43' W 074°01'0 0.0
2017-Sep-11 17:59N 40°43' W 074°01'0 0.0
2017-Sep-11 17:26N 40°43' W 074°01'0 0.0
2017-Sep-11 16:59N 40°43' W 074°01'0 0.0
2017-Sep-11 16:26N 40°43' W 074°01'0 0.0
2017-Sep-11 16:00N 40°43' W 074°01'0 0.0
2017-Sep-11 15:30N 40°43' W 074°01'0 0.0
2017-Sep-11 15:00N 40°43' W 074°01'0 0.0
2017-Sep-11 14:30N 40°43' W 074°01'0 0.0
2017-Sep-11 14:00N 40°43' W 074°01'0 0.0
2017-Sep-11 13:15N 40°43' W 074°01'0 0.0
2017-Sep-11 12:58N 40°43' W 074°01'0 0.0
2017-Sep-11 12:23N 40°43' W 074°01'0 0.0
2017-Sep-11 11:58N 40°43' W 074°01'0 0.0
2017-Sep-11 11:30N 40°43' W 074°01'0 0.0
2017-Sep-11 11:00N 40°43' W 074°01'0 0.0
2017-Sep-11 10:27N 40°43' W 074°01'0 0.0
2017-Sep-11 09:58N 40°43' W 074°01'0 0.0
2017-Sep-11 09:28N 40°43' W 074°01'0 0.0
2017-Sep-11 08:55N 40°43' W 074°01'0 0.0
2017-Sep-11 08:28N 40°43' W 074°01'0 0.0
2017-Sep-11 07:58N 40°43' W 074°01'0 0.0
2017-Sep-11 07:25N 40°43' W 074°01'0 0.0
2017-Sep-11 06:58N 40°43' W 074°01'0 0.0
2017-Sep-11 06:28N 40°43' W 074°01'0 0.0
2017-Sep-11 05:58N 40°43' W 074°01'0 0.0
2017-Sep-11 05:28N 40°43' W 074°01'0 0.0
2017-Sep-11 04:55N 40°43' W 074°01'  

Dump ship's entire track history